sensor_id;sensor_type;location;lat;lon;timestamp;temperature;humidity
19200;DHT22;9732;52.498;5.408;2023-06-24T00:00:05;20.20;99.90
19200;DHT22;9732;52.498;5.408;2023-06-24T00:02:34;20.20;99.90
19200;DHT22;9732;52.498;5.408;2023-06-24T00:05:03;20.10;99.90
19200;DHT22;9732;52.498;5.408;2023-06-24T00:07:32;20.10;99.90
19200;DHT22;9732;52.498;5.408;2023-06-24T00:10:09;20.10;99.90
19200;DHT22;9732;52.498;5.408;2023-06-24T00:12:39;20.00;99.90
19200;DHT22;9732;52.498;5.408;2023-06-24T00:15:08;20.00;99.90
19200;DHT22;9732;52.498;5.408;2023-06-24T00:17:36;20.00;99.90
19200;DHT22;9732;52.498;5.408;2023-06-24T00:20:05;20.00;99.90
19200;DHT22;9732;52.498;5.408;2023-06-24T00:22:37;20.00;99.90
19200;DHT22;9732;52.498;5.408;2023-06-24T00:25:10;19.90;99.90
19200;DHT22;9732;52.498;5.408;2023-06-24T00:27:41;19.90;99.90
19200;DHT22;9732;52.498;5.408;2023-06-24T00:30:12;19.80;99.90
19200;DHT22;9732;52.498;5.408;2023-06-24T00:32:39;19.80;99.90
19200;DHT22;9732;52.498;5.408;2023-06-24T00:35:06;19.80;99.90
19200;DHT22;9732;52.498;5.408;2023-06-24T00:37:33;19.70;99.90
19200;DHT22;9732;52.498;5.408;2023-06-24T00:40:01;19.70;99.90
19200;DHT22;9732;52.498;5.408;2023-06-24T00:42:30;19.70;99.90
19200;DHT22;9732;52.498;5.408;2023-06-24T00:45:01;19.70;99.90
19200;DHT22;9732;52.498;5.408;2023-06-24T00:47:31;19.70;99.90
19200;DHT22;9732;52.498;5.408;2023-06-24T00:50:01;19.70;99.90
19200;DHT22;9732;52.498;5.408;2023-06-24T00:52:29;19.60;99.90
19200;DHT22;9732;52.498;5.408;2023-06-24T00:54:55;19.60;99.90
19200;DHT22;9732;52.498;5.408;2023-06-24T00:57:22;19.60;99.90
19200;DHT22;9732;52.498;5.408;2023-06-24T00:59:50;19.80;99.90
19200;DHT22;9732;52.498;5.408;2023-06-24T01:02:21;19.80;99.90
19200;DHT22;9732;52.498;5.408;2023-06-24T01:04:52;19.80;99.90
19200;DHT22;9732;52.498;5.408;2023-06-24T01:07:20;19.80;99.90
19200;DHT22;9732;52.498;5.408;2023-06-24T01:09:49;19.80;99.90
19200;DHT22;9732;52.498;5.408;2023-06-24T01:12:18;19.80;99.90
19200;DHT22;9732;52.498;5.408;2023-06-24T01:14:47;19.80;99.90
19200;DHT22;9732;52.498;5.408;2023-06-24T01:17:23;19.80;99.90
19200;DHT22;9732;52.498;5.408;2023-06-24T01:20:04;19.80;99.90
19200;DHT22;9732;52.498;5.408;2023-06-24T01:22:54;19.80;99.90
19200;DHT22;9732;52.498;5.408;2023-06-24T01:25:55;19.70;99.90
19200;DHT22;9732;52.498;5.408;2023-06-24T01:28:40;19.80;99.90
19200;DHT22;9732;52.498;5.408;2023-06-24T01:31:30;19.80;99.90
19200;DHT22;9732;52.498;5.408;2023-06-24T01:34:04;19.70;99.90
19200;DHT22;9732;52.498;5.408;2023-06-24T01:36:46;19.70;99.90
19200;DHT22;9732;52.498;5.408;2023-06-24T01:39:16;19.70;99.90
19200;DHT22;9732;52.498;5.408;2023-06-24T01:41:46;19.70;99.90
19200;DHT22;9732;52.498;5.408;2023-06-24T01:44:15;19.70;99.90
19200;DHT22;9732;52.498;5.408;2023-06-24T01:46:46;19.70;99.90
19200;DHT22;9732;52.498;5.408;2023-06-24T01:49:14;19.80;99.90
19200;DHT22;9732;52.498;5.408;2023-06-24T01:51:45;19.80;99.90
19200;DHT22;9732;52.498;5.408;2023-06-24T01:54:16;19.90;99.90
19200;DHT22;9732;52.498;5.408;2023-06-24T01:56:47;19.80;99.90
19200;DHT22;9732;52.498;5.408;2023-06-24T01:59:16;19.90;99.90
19200;DHT22;9732;52.498;5.408;2023-06-24T02:01:46;19.80;99.90
19200;DHT22;9732;52.498;5.408;2023-06-24T02:04:15;19.70;99.90
19200;DHT22;9732;52.498;5.408;2023-06-24T02:06:44;19.80;99.90
19200;DHT22;9732;52.498;5.408;2023-06-24T02:09:16;19.80;99.90
19200;DHT22;9732;52.498;5.408;2023-06-24T02:11:47;19.90;99.90
19200;DHT22;9732;52.498;5.408;2023-06-24T02:14:18;20.00;99.90
19200;DHT22;9732;52.498;5.408;2023-06-24T02:16:51;20.00;99.90
19200;DHT22;9732;52.498;5.408;2023-06-24T02:19:22;20.00;99.90
19200;DHT22;9732;52.498;5.408;2023-06-24T02:21:52;19.90;99.90
19200;DHT22;9732;52.498;5.408;2023-06-24T02:24:21;19.80;99.90
19200;DHT22;9732;52.498;5.408;2023-06-24T02:26:50;19.70;99.90
19200;DHT22;9732;52.498;5.408;2023-06-24T02:29:19;19.60;99.90
19200;DHT22;9732;52.498;5.408;2023-06-24T02:31:50;19.70;99.90
19200;DHT22;9732;52.498;5.408;2023-06-24T02:34:18;19.80;99.90
19200;DHT22;9732;52.498;5.408;2023-06-24T02:36:45;19.80;99.90
19200;DHT22;9732;52.498;5.408;2023-06-24T02:39:13;19.90;99.90
19200;DHT22;9732;52.498;5.408;2023-06-24T02:41:41;19.80;99.90
19200;DHT22;9732;52.498;5.408;2023-06-24T02:44:11;19.80;99.90
19200;DHT22;9732;52.498;5.408;2023-06-24T02:46:38;19.60;99.90
19200;DHT22;9732;52.498;5.408;2023-06-24T02:49:10;19.60;99.90
19200;DHT22;9732;52.498;5.408;2023-06-24T02:51:39;19.50;99.90
19200;DHT22;9732;52.498;5.408;2023-06-24T02:54:09;19.50;99.90
19200;DHT22;9732;52.498;5.408;2023-06-24T02:56:38;19.40;99.90
19200;DHT22;9732;52.498;5.408;2023-06-24T02:59:07;19.40;99.90
19200;DHT22;9732;52.498;5.408;2023-06-24T03:01:35;19.30;99.90
19200;DHT22;9732;52.498;5.408;2023-06-24T03:04:05;19.30;99.90
19200;DHT22;9732;52.498;5.408;2023-06-24T03:06:34;19.40;99.90
19200;DHT22;9732;52.498;5.408;2023-06-24T03:09:03;19.50;99.90
19200;DHT22;9732;52.498;5.408;2023-06-24T03:11:30;19.40;99.90
19200;DHT22;9732;52.498;5.408;2023-06-24T03:14:00;19.40;99.90
19200;DHT22;9732;52.498;5.408;2023-06-24T03:16:27;19.40;99.90
19200;DHT22;9732;52.498;5.408;2023-06-24T03:18:55;19.40;99.90
19200;DHT22;9732;52.498;5.408;2023-06-24T03:21:22;19.50;99.90
19200;DHT22;9732;52.498;5.408;2023-06-24T03:23:55;19.60;99.90
19200;DHT22;9732;52.498;5.408;2023-06-24T03:26:22;19.50;99.90
19200;DHT22;9732;52.498;5.408;2023-06-24T03:28:50;19.40;99.90
19200;DHT22;9732;52.498;5.408;2023-06-24T03:31:18;19.30;99.90
19200;DHT22;9732;52.498;5.408;2023-06-24T03:33:54;19.20;99.90
19200;DHT22;9732;52.498;5.408;2023-06-24T03:36:22;19.20;99.90
19200;DHT22;9732;52.498;5.408;2023-06-24T03:38:50;19.20;99.90
19200;DHT22;9732;52.498;5.408;2023-06-24T03:41:20;19.20;99.90
19200;DHT22;9732;52.498;5.408;2023-06-24T03:43:48;19.20;99.90
19200;DHT22;9732;52.498;5.408;2023-06-24T03:46:16;19.20;99.90
19200;DHT22;9732;52.498;5.408;2023-06-24T03:48:43;19.20;99.90
19200;DHT22;9732;52.498;5.408;2023-06-24T03:51:11;19.20;99.90
19200;DHT22;9732;52.498;5.408;2023-06-24T03:53:38;19.20;99.90
19200;DHT22;9732;52.498;5.408;2023-06-24T03:56:05;19.20;99.90
19200;DHT22;9732;52.498;5.408;2023-06-24T03:58:34;19.10;99.90
19200;DHT22;9732;52.498;5.408;2023-06-24T04:01:02;19.10;99.90
19200;DHT22;9732;52.498;5.408;2023-06-24T04:03:29;19.10;99.90
19200;DHT22;9732;52.498;5.408;2023-06-24T04:05:57;19.10;99.90
19200;DHT22;9732;52.498;5.408;2023-06-24T04:08:27;19.10;99.90
19200;DHT22;9732;52.498;5.408;2023-06-24T04:10:56;19.10;99.90
19200;DHT22;9732;52.498;5.408;2023-06-24T04:13:26;19.10;99.90
19200;DHT22;9732;52.498;5.408;2023-06-24T04:15:57;19.10;99.90
19200;DHT22;9732;52.498;5.408;2023-06-24T04:18:25;19.20;99.90
19200;DHT22;9732;52.498;5.408;2023-06-24T04:20:54;19.20;99.90
19200;DHT22;9732;52.498;5.408;2023-06-24T04:23:21;19.20;99.90
19200;DHT22;9732;52.498;5.408;2023-06-24T04:25:48;19.20;99.90
19200;DHT22;9732;52.498;5.408;2023-06-24T04:28:15;19.20;99.90
19200;DHT22;9732;52.498;5.408;2023-06-24T04:30:45;19.20;99.90
19200;DHT22;9732;52.498;5.408;2023-06-24T04:33:16;19.20;99.90
19200;DHT22;9732;52.498;5.408;2023-06-24T04:35:43;19.20;99.90
19200;DHT22;9732;52.498;5.408;2023-06-24T04:38:11;19.20;99.90
19200;DHT22;9732;52.498;5.408;2023-06-24T04:40:43;19.20;99.90
19200;DHT22;9732;52.498;5.408;2023-06-24T04:43:10;19.20;99.90
19200;DHT22;9732;52.498;5.408;2023-06-24T04:45:37;19.20;99.90
19200;DHT22;9732;52.498;5.408;2023-06-24T04:48:05;19.20;99.90
19200;DHT22;9732;52.498;5.408;2023-06-24T04:50:35;19.20;99.90
19200;DHT22;9732;52.498;5.408;2023-06-24T04:53:04;19.20;99.90
19200;DHT22;9732;52.498;5.408;2023-06-24T04:55:31;19.20;99.90
19200;DHT22;9732;52.498;5.408;2023-06-24T04:57:58;19.10;99.90
19200;DHT22;9732;52.498;5.408;2023-06-24T05:00:25;19.10;99.90
19200;DHT22;9732;52.498;5.408;2023-06-24T05:02:52;19.10;99.90
19200;DHT22;9732;52.498;5.408;2023-06-24T05:05:19;19.20;99.90
19200;DHT22;9732;52.498;5.408;2023-06-24T05:07:49;19.20;99.90
19200;DHT22;9732;52.498;5.408;2023-06-24T05:10:16;19.20;99.90
19200;DHT22;9732;52.498;5.408;2023-06-24T05:12:43;19.20;99.90
19200;DHT22;9732;52.498;5.408;2023-06-24T05:15:11;19.20;99.90
19200;DHT22;9732;52.498;5.408;2023-06-24T05:17:42;19.30;99.90
19200;DHT22;9732;52.498;5.408;2023-06-24T05:20:10;19.30;99.90
19200;DHT22;9732;52.498;5.408;2023-06-24T05:22:38;19.40;99.90
19200;DHT22;9732;52.498;5.408;2023-06-24T05:25:08;19.50;99.90
19200;DHT22;9732;52.498;5.408;2023-06-24T05:27:36;19.50;99.90
19200;DHT22;9732;52.498;5.408;2023-06-24T05:30:05;19.70;99.90
19200;DHT22;9732;52.498;5.408;2023-06-24T05:32:33;19.70;99.90
19200;DHT22;9732;52.498;5.408;2023-06-24T05:34:59;19.70;99.90
19200;DHT22;9732;52.498;5.408;2023-06-24T05:37:28;19.80;99.90
19200;DHT22;9732;52.498;5.408;2023-06-24T05:39:56;19.90;99.90
19200;DHT22;9732;52.498;5.408;2023-06-24T05:42:28;19.90;99.90
19200;DHT22;9732;52.498;5.408;2023-06-24T05:44:56;19.90;99.90
19200;DHT22;9732;52.498;5.408;2023-06-24T05:47:24;19.90;99.90
19200;DHT22;9732;52.498;5.408;2023-06-24T05:49:51;20.00;99.90
19200;DHT22;9732;52.498;5.408;2023-06-24T05:52:18;20.00;99.90
19200;DHT22;9732;52.498;5.408;2023-06-24T05:54:46;20.00;99.90
19200;DHT22;9732;52.498;5.408;2023-06-24T05:57:14;20.00;99.90
19200;DHT22;9732;52.498;5.408;2023-06-24T05:59:43;20.10;99.90
19200;DHT22;9732;52.498;5.408;2023-06-24T06:02:10;20.10;99.90
19200;DHT22;9732;52.498;5.408;2023-06-24T06:04:39;20.20;99.90
19200;DHT22;9732;52.498;5.408;2023-06-24T06:07:06;20.20;99.90
19200;DHT22;9732;52.498;5.408;2023-06-24T06:09:33;20.10;99.90
19200;DHT22;9732;52.498;5.408;2023-06-24T06:12:02;20.10;99.90
19200;DHT22;9732;52.498;5.408;2023-06-24T06:14:29;20.10;99.90
19200;DHT22;9732;52.498;5.408;2023-06-24T06:16:58;20.20;99.90
19200;DHT22;9732;52.498;5.408;2023-06-24T06:19:26;20.20;99.90
19200;DHT22;9732;52.498;5.408;2023-06-24T06:21:53;20.30;99.90
19200;DHT22;9732;52.498;5.408;2023-06-24T06:24:21;20.30;99.90
19200;DHT22;9732;52.498;5.408;2023-06-24T06:26:49;20.30;99.90
19200;DHT22;9732;52.498;5.408;2023-06-24T06:29:16;20.30;99.90
19200;DHT22;9732;52.498;5.408;2023-06-24T06:31:44;20.40;99.90
19200;DHT22;9732;52.498;5.408;2023-06-24T06:34:13;20.40;99.90
19200;DHT22;9732;52.498;5.408;2023-06-24T06:36:40;20.40;99.90
19200;DHT22;9732;52.498;5.408;2023-06-24T06:39:07;20.40;99.90
19200;DHT22;9732;52.498;5.408;2023-06-24T06:41:35;20.40;99.90
19200;DHT22;9732;52.498;5.408;2023-06-24T06:44:03;20.40;99.90
19200;DHT22;9732;52.498;5.408;2023-06-24T06:46:30;20.30;99.90
19200;DHT22;9732;52.498;5.408;2023-06-24T06:48:58;20.30;99.90
19200;DHT22;9732;52.498;5.408;2023-06-24T06:51:28;20.40;99.90
19200;DHT22;9732;52.498;5.408;2023-06-24T06:53:55;20.30;99.90
19200;DHT22;9732;52.498;5.408;2023-06-24T06:56:23;20.30;99.90
19200;DHT22;9732;52.498;5.408;2023-06-24T06:58:51;20.30;99.90
19200;DHT22;9732;52.498;5.408;2023-06-24T07:01:20;20.30;99.90
19200;DHT22;9732;52.498;5.408;2023-06-24T07:03:49;20.30;99.90
19200;DHT22;9732;52.498;5.408;2023-06-24T07:06:18;20.30;99.90
19200;DHT22;9732;52.498;5.408;2023-06-24T07:08:48;20.40;99.90
19200;DHT22;9732;52.498;5.408;2023-06-24T07:11:17;20.40;99.90
19200;DHT22;9732;52.498;5.408;2023-06-24T07:13:44;20.50;99.90
19200;DHT22;9732;52.498;5.408;2023-06-24T07:16:13;20.60;99.90
19200;DHT22;9732;52.498;5.408;2023-06-24T07:18:40;20.70;99.90
19200;DHT22;9732;52.498;5.408;2023-06-24T07:21:08;20.80;99.90
19200;DHT22;9732;52.498;5.408;2023-06-24T07:23:34;20.80;99.90
19200;DHT22;9732;52.498;5.408;2023-06-24T07:26:03;20.90;99.90
19200;DHT22;9732;52.498;5.408;2023-06-24T07:28:30;21.10;99.90
19200;DHT22;9732;52.498;5.408;2023-06-24T07:30:58;21.10;99.90
19200;DHT22;9732;52.498;5.408;2023-06-24T07:33:26;21.20;99.90
19200;DHT22;9732;52.498;5.408;2023-06-24T07:35:56;21.30;99.90
19200;DHT22;9732;52.498;5.408;2023-06-24T07:38:24;21.50;99.90
19200;DHT22;9732;52.498;5.408;2023-06-24T07:40:51;21.60;99.90
19200;DHT22;9732;52.498;5.408;2023-06-24T07:43:22;21.70;99.90
19200;DHT22;9732;52.498;5.408;2023-06-24T07:45:49;21.80;99.90
19200;DHT22;9732;52.498;5.408;2023-06-24T07:48:20;21.90;99.90
19200;DHT22;9732;52.498;5.408;2023-06-24T07:50:48;22.10;99.90
19200;DHT22;9732;52.498;5.408;2023-06-24T07:53:16;22.20;99.90
19200;DHT22;9732;52.498;5.408;2023-06-24T07:55:44;22.30;99.90
19200;DHT22;9732;52.498;5.408;2023-06-24T07:58:12;22.40;99.90
19200;DHT22;9732;52.498;5.408;2023-06-24T08:00:41;22.50;99.90
19200;DHT22;9732;52.498;5.408;2023-06-24T08:03:09;22.60;99.90
19200;DHT22;9732;52.498;5.408;2023-06-24T08:05:36;22.80;99.90
19200;DHT22;9732;52.498;5.408;2023-06-24T08:08:05;22.90;99.90
19200;DHT22;9732;52.498;5.408;2023-06-24T08:10:32;23.10;99.90
19200;DHT22;9732;52.498;5.408;2023-06-24T08:13:00;23.10;99.90
19200;DHT22;9732;52.498;5.408;2023-06-24T08:15:26;23.20;99.90
19200;DHT22;9732;52.498;5.408;2023-06-24T08:17:55;23.30;99.90
19200;DHT22;9732;52.498;5.408;2023-06-24T08:20:23;23.40;99.90
19200;DHT22;9732;52.498;5.408;2023-06-24T08:22:50;23.50;99.90
19200;DHT22;9732;52.498;5.408;2023-06-24T08:25:19;23.60;99.90
19200;DHT22;9732;52.498;5.408;2023-06-24T08:27:46;23.70;99.90
19200;DHT22;9732;52.498;5.408;2023-06-24T08:30:14;23.80;99.90
19200;DHT22;9732;52.498;5.408;2023-06-24T08:32:42;24.00;99.90
19200;DHT22;9732;52.498;5.408;2023-06-24T08:35:11;24.10;99.90
19200;DHT22;9732;52.498;5.408;2023-06-24T08:37:39;24.20;99.90
19200;DHT22;9732;52.498;5.408;2023-06-24T08:40:07;24.20;99.90
19200;DHT22;9732;52.498;5.408;2023-06-24T08:42:35;24.40;99.90
19200;DHT22;9732;52.498;5.408;2023-06-24T08:45:04;24.40;99.90
19200;DHT22;9732;52.498;5.408;2023-06-24T08:47:31;24.30;99.90
19200;DHT22;9732;52.498;5.408;2023-06-24T08:50:02;24.30;99.90
19200;DHT22;9732;52.498;5.408;2023-06-24T08:52:35;24.30;99.90
19200;DHT22;9732;52.498;5.408;2023-06-24T08:55:07;24.20;99.90
19200;DHT22;9732;52.498;5.408;2023-06-24T08:57:36;24.30;99.90
19200;DHT22;9732;52.498;5.408;2023-06-24T09:00:04;24.30;99.90
19200;DHT22;9732;52.498;5.408;2023-06-24T09:02:36;24.30;99.90
19200;DHT22;9732;52.498;5.408;2023-06-24T09:05:04;24.30;99.90
19200;DHT22;9732;52.498;5.408;2023-06-24T09:07:33;24.40;99.90
19200;DHT22;9732;52.498;5.408;2023-06-24T09:10:01;24.40;99.90
19200;DHT22;9732;52.498;5.408;2023-06-24T09:12:31;24.50;99.90
19200;DHT22;9732;52.498;5.408;2023-06-24T09:14:58;24.60;99.90
19200;DHT22;9732;52.498;5.408;2023-06-24T09:17:26;24.60;99.90
19200;DHT22;9732;52.498;5.408;2023-06-24T09:20:03;24.60;99.90
19200;DHT22;9732;52.498;5.408;2023-06-24T09:22:32;24.60;99.90
19200;DHT22;9732;52.498;5.408;2023-06-24T09:25:01;24.70;99.90
19200;DHT22;9732;52.498;5.408;2023-06-24T09:27:31;24.80;99.90
19200;DHT22;9732;52.498;5.408;2023-06-24T09:30:04;25.00;99.90
19200;DHT22;9732;52.498;5.408;2023-06-24T09:32:43;25.10;99.90
19200;DHT22;9732;52.498;5.408;2023-06-24T09:35:13;25.20;99.90
19200;DHT22;9732;52.498;5.408;2023-06-24T09:37:43;25.30;99.90
19200;DHT22;9732;52.498;5.408;2023-06-24T09:40:15;25.40;99.90
19200;DHT22;9732;52.498;5.408;2023-06-24T09:42:50;25.60;99.90
19200;DHT22;9732;52.498;5.408;2023-06-24T09:45:21;25.70;99.90
19200;DHT22;9732;52.498;5.408;2023-06-24T09:47:48;25.80;99.90
19200;DHT22;9732;52.498;5.408;2023-06-24T09:50:15;25.90;99.90
19200;DHT22;9732;52.498;5.408;2023-06-24T09:52:43;26.00;99.90
19200;DHT22;9732;52.498;5.408;2023-06-24T09:55:13;26.20;99.90
19200;DHT22;9732;52.498;5.408;2023-06-24T09:57:41;26.30;99.90
19200;DHT22;9732;52.498;5.408;2023-06-24T10:00:10;26.40;99.90
19200;DHT22;9732;52.498;5.408;2023-06-24T10:02:38;26.60;99.90
19200;DHT22;9732;52.498;5.408;2023-06-24T10:05:05;26.80;99.90
19200;DHT22;9732;52.498;5.408;2023-06-24T10:07:32;27.20;99.90
19200;DHT22;9732;52.498;5.408;2023-06-24T10:10:03;27.30;99.90
19200;DHT22;9732;52.498;5.408;2023-06-24T10:12:30;27.70;99.90
19200;DHT22;9732;52.498;5.408;2023-06-24T10:14:57;28.00;99.90
19200;DHT22;9732;52.498;5.408;2023-06-24T10:17:25;28.10;99.90
19200;DHT22;9732;52.498;5.408;2023-06-24T10:19:52;28.30;99.90
19200;DHT22;9732;52.498;5.408;2023-06-24T10:22:21;28.50;99.90
19200;DHT22;9732;52.498;5.408;2023-06-24T10:24:51;28.80;99.90
19200;DHT22;9732;52.498;5.408;2023-06-24T10:27:21;29.00;99.90
19200;DHT22;9732;52.498;5.408;2023-06-24T10:29:49;29.10;99.90
19200;DHT22;9732;52.498;5.408;2023-06-24T10:32:18;29.30;99.90
19200;DHT22;9732;52.498;5.408;2023-06-24T10:34:46;29.40;99.90
19200;DHT22;9732;52.498;5.408;2023-06-24T10:37:15;29.70;99.90
19200;DHT22;9732;52.498;5.408;2023-06-24T10:39:49;29.90;99.90
19200;DHT22;9732;52.498;5.408;2023-06-24T10:42:39;30.20;99.90
19200;DHT22;9732;52.498;5.408;2023-06-24T10:45:18;30.50;99.90
19200;DHT22;9732;52.498;5.408;2023-06-24T10:47:46;30.90;99.90
19200;DHT22;9732;52.498;5.408;2023-06-24T10:50:14;31.20;99.90
19200;DHT22;9732;52.498;5.408;2023-06-24T10:52:42;31.50;99.90
19200;DHT22;9732;52.498;5.408;2023-06-24T10:55:10;31.70;99.90
19200;DHT22;9732;52.498;5.408;2023-06-24T10:57:37;31.90;99.90
19200;DHT22;9732;52.498;5.408;2023-06-24T11:00:06;32.00;99.90
19200;DHT22;9732;52.498;5.408;2023-06-24T11:02:33;32.00;99.90
19200;DHT22;9732;52.498;5.408;2023-06-24T11:05:01;32.00;99.90
19200;DHT22;9732;52.498;5.408;2023-06-24T11:07:30;32.20;99.90
19200;DHT22;9732;52.498;5.408;2023-06-24T11:10:01;32.30;99.90
19200;DHT22;9732;52.498;5.408;2023-06-24T11:12:30;32.50;99.90
19200;DHT22;9732;52.498;5.408;2023-06-24T11:14:58;32.60;99.90
19200;DHT22;9732;52.498;5.408;2023-06-24T11:17:27;32.80;99.90
19200;DHT22;9732;52.498;5.408;2023-06-24T11:19:54;33.10;99.90
19200;DHT22;9732;52.498;5.408;2023-06-24T11:22:22;33.00;99.90
19200;DHT22;9732;52.498;5.408;2023-06-24T11:24:48;32.90;99.90
19200;DHT22;9732;52.498;5.408;2023-06-24T11:27:15;33.00;99.90
19200;DHT22;9732;52.498;5.408;2023-06-24T11:29:44;33.00;99.90
19200;DHT22;9732;52.498;5.408;2023-06-24T11:32:11;32.70;99.90
19200;DHT22;9732;52.498;5.408;2023-06-24T11:34:39;32.70;99.90
19200;DHT22;9732;52.498;5.408;2023-06-24T11:37:10;32.90;99.90
19200;DHT22;9732;52.498;5.408;2023-06-24T11:39:37;32.90;99.90
19200;DHT22;9732;52.498;5.408;2023-06-24T11:42:06;33.10;99.90
19200;DHT22;9732;52.498;5.408;2023-06-24T11:44:33;33.40;99.90
19200;DHT22;9732;52.498;5.408;2023-06-24T11:47:04;33.40;99.90
19200;DHT22;9732;52.498;5.408;2023-06-24T11:49:31;33.50;99.90
19200;DHT22;9732;52.498;5.408;2023-06-24T11:51:59;33.60;99.90
19200;DHT22;9732;52.498;5.408;2023-06-24T11:54:26;33.70;99.90
19200;DHT22;9732;52.498;5.408;2023-06-24T11:56:53;33.70;99.90
19200;DHT22;9732;52.498;5.408;2023-06-24T11:59:21;33.80;99.90
19200;DHT22;9732;52.498;5.408;2023-06-24T12:01:55;33.80;99.90
19200;DHT22;9732;52.498;5.408;2023-06-24T12:04:27;33.70;99.90
19200;DHT22;9732;52.498;5.408;2023-06-24T12:06:54;33.70;99.90
19200;DHT22;9732;52.498;5.408;2023-06-24T12:09:22;33.50;99.90
19200;DHT22;9732;52.498;5.408;2023-06-24T12:11:49;33.50;99.90
19200;DHT22;9732;52.498;5.408;2023-06-24T12:14:16;33.70;99.90
19200;DHT22;9732;52.498;5.408;2023-06-24T12:16:43;33.70;99.90
19200;DHT22;9732;52.498;5.408;2023-06-24T12:19:10;33.80;99.90
19200;DHT22;9732;52.498;5.408;2023-06-24T12:21:37;33.90;99.90
19200;DHT22;9732;52.498;5.408;2023-06-24T12:24:05;33.80;99.90
19200;DHT22;9732;52.498;5.408;2023-06-24T12:26:33;33.70;99.90
19200;DHT22;9732;52.498;5.408;2023-06-24T12:29:01;33.60;99.90
19200;DHT22;9732;52.498;5.408;2023-06-24T12:31:28;33.70;99.90
19200;DHT22;9732;52.498;5.408;2023-06-24T12:33:54;33.90;99.90
19200;DHT22;9732;52.498;5.408;2023-06-24T12:36:21;34.20;99.90
19200;DHT22;9732;52.498;5.408;2023-06-24T12:38:48;34.20;99.90
19200;DHT22;9732;52.498;5.408;2023-06-24T12:41:15;34.30;99.90
19200;DHT22;9732;52.498;5.408;2023-06-24T12:43:44;34.30;99.90
19200;DHT22;9732;52.498;5.408;2023-06-24T12:46:12;34.30;99.90
19200;DHT22;9732;52.498;5.408;2023-06-24T12:48:40;34.20;99.90
19200;DHT22;9732;52.498;5.408;2023-06-24T12:51:09;34.30;99.90
19200;DHT22;9732;52.498;5.408;2023-06-24T12:53:36;34.30;99.90
19200;DHT22;9732;52.498;5.408;2023-06-24T12:56:04;34.50;99.90
19200;DHT22;9732;52.498;5.408;2023-06-24T12:58:31;34.50;99.90
19200;DHT22;9732;52.498;5.408;2023-06-24T13:01:06;34.60;99.90
19200;DHT22;9732;52.498;5.408;2023-06-24T13:03:33;34.50;99.90
19200;DHT22;9732;52.498;5.408;2023-06-24T13:06:00;34.70;99.90
19200;DHT22;9732;52.498;5.408;2023-06-24T13:08:27;35.00;99.90
19200;DHT22;9732;52.498;5.408;2023-06-24T13:10:56;35.10;99.90
19200;DHT22;9732;52.498;5.408;2023-06-24T13:13:24;35.30;99.90
19200;DHT22;9732;52.498;5.408;2023-06-24T13:15:51;35.30;99.90
19200;DHT22;9732;52.498;5.408;2023-06-24T13:18:20;35.30;99.90
19200;DHT22;9732;52.498;5.408;2023-06-24T13:20:47;35.20;99.90
19200;DHT22;9732;52.498;5.408;2023-06-24T13:23:15;35.20;99.90
19200;DHT22;9732;52.498;5.408;2023-06-24T13:25:42;35.00;99.90
19200;DHT22;9732;52.498;5.408;2023-06-24T13:28:10;34.90;99.90
19200;DHT22;9732;52.498;5.408;2023-06-24T13:30:38;34.80;99.90
19200;DHT22;9732;52.498;5.408;2023-06-24T13:33:08;34.70;99.90
19200;DHT22;9732;52.498;5.408;2023-06-24T13:35:37;34.60;99.90
19200;DHT22;9732;52.498;5.408;2023-06-24T13:38:06;34.60;99.90
19200;DHT22;9732;52.498;5.408;2023-06-24T13:40:34;34.60;99.90
19200;DHT22;9732;52.498;5.408;2023-06-24T13:43:01;34.50;99.90
19200;DHT22;9732;52.498;5.408;2023-06-24T13:45:29;34.40;99.90
19200;DHT22;9732;52.498;5.408;2023-06-24T13:47:56;34.30;99.90
19200;DHT22;9732;52.498;5.408;2023-06-24T13:50:24;34.30;99.90
19200;DHT22;9732;52.498;5.408;2023-06-24T13:52:54;34.10;99.90
19200;DHT22;9732;52.498;5.408;2023-06-24T13:55:22;33.90;99.90
19200;DHT22;9732;52.498;5.408;2023-06-24T13:57:49;33.90;99.90
19200;DHT22;9732;52.498;5.408;2023-06-24T14:00:18;33.70;99.90
19200;DHT22;9732;52.498;5.408;2023-06-24T14:02:46;33.60;99.90
19200;DHT22;9732;52.498;5.408;2023-06-24T14:05:14;33.50;99.90
19200;DHT22;9732;52.498;5.408;2023-06-24T14:07:41;33.50;99.90
19200;DHT22;9732;52.498;5.408;2023-06-24T14:10:10;33.50;99.90
19200;DHT22;9732;52.498;5.408;2023-06-24T14:12:38;33.30;99.90
19200;DHT22;9732;52.498;5.408;2023-06-24T14:15:09;33.20;99.90
19200;DHT22;9732;52.498;5.408;2023-06-24T14:17:37;33.10;99.90
19200;DHT22;9732;52.498;5.408;2023-06-24T14:20:05;33.20;99.90
19200;DHT22;9732;52.498;5.408;2023-06-24T14:22:34;33.20;99.90
19200;DHT22;9732;52.498;5.408;2023-06-24T14:25:02;33.10;99.90
19200;DHT22;9732;52.498;5.408;2023-06-24T14:27:30;32.90;99.90
19200;DHT22;9732;52.498;5.408;2023-06-24T14:29:57;32.90;99.90
19200;DHT22;9732;52.498;5.408;2023-06-24T14:32:24;32.90;99.90
19200;DHT22;9732;52.498;5.408;2023-06-24T14:34:51;32.90;99.90
19200;DHT22;9732;52.498;5.408;2023-06-24T14:37:18;32.70;99.90
19200;DHT22;9732;52.498;5.408;2023-06-24T14:39:45;32.60;99.90
19200;DHT22;9732;52.498;5.408;2023-06-24T14:42:12;32.50;99.90
19200;DHT22;9732;52.498;5.408;2023-06-24T14:44:41;32.40;99.90
19200;DHT22;9732;52.498;5.408;2023-06-24T14:47:10;32.20;99.90
19200;DHT22;9732;52.498;5.408;2023-06-24T14:49:37;32.20;99.90
19200;DHT22;9732;52.498;5.408;2023-06-24T14:52:05;32.10;99.90
19200;DHT22;9732;52.498;5.408;2023-06-24T14:54:32;32.00;99.90
19200;DHT22;9732;52.498;5.408;2023-06-24T14:56:59;31.90;99.90
19200;DHT22;9732;52.498;5.408;2023-06-24T14:59:26;32.00;99.90
19200;DHT22;9732;52.498;5.408;2023-06-24T15:01:54;32.00;99.90
19200;DHT22;9732;52.498;5.408;2023-06-24T15:04:21;31.80;99.90
19200;DHT22;9732;52.498;5.408;2023-06-24T15:06:48;31.70;99.90
19200;DHT22;9732;52.498;5.408;2023-06-24T15:09:16;31.60;99.90
19200;DHT22;9732;52.498;5.408;2023-06-24T15:11:43;31.60;99.90
19200;DHT22;9732;52.498;5.408;2023-06-24T15:14:10;31.60;99.90
19200;DHT22;9732;52.498;5.408;2023-06-24T15:16:38;31.60;99.90
19200;DHT22;9732;52.498;5.408;2023-06-24T15:19:08;31.40;99.90
19200;DHT22;9732;52.498;5.408;2023-06-24T15:21:35;31.30;99.90
19200;DHT22;9732;52.498;5.408;2023-06-24T15:24:02;31.20;99.90
19200;DHT22;9732;52.498;5.408;2023-06-24T15:26:30;31.10;99.90
19200;DHT22;9732;52.498;5.408;2023-06-24T15:28:57;31.00;99.90
19200;DHT22;9732;52.498;5.408;2023-06-24T15:31:24;30.90;99.90
19200;DHT22;9732;52.498;5.408;2023-06-24T15:33:52;30.70;99.90
19200;DHT22;9732;52.498;5.408;2023-06-24T15:36:21;30.50;99.90
19200;DHT22;9732;52.498;5.408;2023-06-24T15:38:53;30.30;99.90
19200;DHT22;9732;52.498;5.408;2023-06-24T15:41:20;30.20;99.90
19200;DHT22;9732;52.498;5.408;2023-06-24T15:43:48;30.20;99.90
19200;DHT22;9732;52.498;5.408;2023-06-24T15:46:15;29.90;99.90
19200;DHT22;9732;52.498;5.408;2023-06-24T15:48:44;29.90;99.90
19200;DHT22;9732;52.498;5.408;2023-06-24T15:51:10;29.70;99.90
19200;DHT22;9732;52.498;5.408;2023-06-24T15:53:40;29.60;99.90